Time;durP1;ratioP1;P1;durP2;ratioP2;P2;SDS_P1;SDS_P2;PMS_P1;PMS_P2;Temp;Humidity;BMP_temperature;BMP_pressure;BME280_temperature;BME280_humidity;BME280_pressure;Samples;Min_cycle;Max_cycle;Signal;HPM_P1;HPM_P2
2023/03/27 00:00:55;;;;;;;0.07;0.07;;;;;;;7.34;79.71;94175.97;4391535;32;20347;-49
2023/03/27 00:03:22;;;;;;;0.00;0.00;;;;;;;7.32;79.63;94178.13;4389886;32;20272;-52
2023/03/27 00:05:47;;;;;;;0.00;0.00;;;;;;;7.41;78.91;94181.59;4369281;32;20298;-50
2023/03/27 00:08:13;;;;;;;0.10;0.10;;;;;;;7.46;78.86;94176.19;4374584;32;20323;-51
2023/03/27 00:10:39;;;;;;;0.10;0.10;;;;;;;7.54;78.90;94175.47;4391182;32;20264;-47
2023/03/27 00:13:07;;;;;;;0.20;0.17;;;;;;;7.47;79.32;94174.34;4388234;32;20196;-50
2023/03/27 00:15:33;;;;;;;0.00;0.00;;;;;;;7.56;78.69;94175.94;4376676;32;20294;-45
2023/03/27 00:18:02;;;;;;;0.00;0.00;;;;;;;7.38;78.52;94179.56;4391609;32;20276;-48
2023/03/27 00:20:30;;;;;;;1.40;0.27;;;;;;;7.40;79.47;94187.94;4382887;32;20580;-49
2023/03/27 00:22:55;;;;;;;0.20;0.10;;;;;;;7.08;80.26;94177.63;4385179;32;20340;-49
2023/03/27 00:25:24;;;;;;;0.00;0.00;;;;;;;7.03;80.59;94169.84;4391457;32;20302;-45
2023/03/27 00:27:50;;;;;;;0.00;0.00;;;;;;;7.23;80.56;94172.00;4391006;32;20207;-47
2023/03/27 00:30:15;;;;;;;0.00;0.00;;;;;;;7.06;80.34;94177.94;4386654;32;20291;-47
2023/03/27 00:32:41;;;;;;;0.00;0.00;;;;;;;7.11;80.30;94171.75;4389195;32;20281;-50
2023/03/27 00:35:11;;;;;;;0.00;0.00;;;;;;;7.16;80.08;94174.28;4388370;32;20204;-49
2023/03/27 00:37:36;;;;;;;0.10;0.10;;;;;;;7.09;80.68;94166.00;4372289;32;20276;-46
2023/03/27 00:40:07;;;;;;;0.00;0.00;;;;;;;6.99;80.64;94176.78;4385836;32;20382;-46
2023/03/27 00:42:33;;;;;;;0.00;0.00;;;;;;;7.23;79.68;94177.28;4389857;32;20203;-46
2023/03/27 00:44:59;;;;;;;0.00;0.00;;;;;;;7.22;79.72;94176.50;4391071;32;20319;-47
2023/03/27 00:47:33;;;;;;;0.20;0.10;;;;;;;7.18;80.48;94169.50;4377383;32;20312;-50
2023/03/27 00:50:02;;;;;;;0.10;0.10;;;;;;;7.30;80.17;94175.00;4390472;32;20286;-52
2023/03/27 00:52:30;;;;;;;0.00;0.00;;;;;;;7.17;80.01;94174.00;4378875;32;20295;-53
2023/03/27 00:55:01;;;;;;;0.00;0.00;;;;;;;7.27;79.86;94178.25;4373703;32;20286;-50
2023/03/27 00:57:27;;;;;;;0.20;0.13;;;;;;;7.33;80.02;94181.53;4392363;32;20272;-51
2023/03/27 00:59:55;;;;;;;0.10;0.10;;;;;;;7.31;79.76;94173.91;4394156;32;20331;-49
2023/03/27 01:02:21;;;;;;;1.30;0.83;;;;;;;7.22;80.33;94175.72;4394446;32;20195;-50
2023/03/27 01:04:46;;;;;;;0.10;0.10;;;;;;;7.38;79.68;94184.06;4394610;32;20280;-50
2023/03/27 01:07:13;;;;;;;0.00;0.00;;;;;;;7.41;79.37;94178.97;4380610;32;20215;-53
2023/03/27 01:09:38;;;;;;;0.00;0.00;;;;;;;7.41;80.17;94176.31;4374232;32;20224;-50
2023/03/27 01:12:21;;;;;;;0.17;0.17;;;;;;;7.30;80.39;94177.63;4382644;32;20276;-52
2023/03/27 01:14:56;;;;;;;0.10;0.10;;;;;;;7.31;80.52;94181.03;4392456;32;20181;-51
2023/03/27 01:17:45;;;;;;;0.10;0.10;;;;;;;7.39;81.17;94175.06;4378745;32;20275;-50
2023/03/27 01:20:39;;;;;;;0.10;0.10;;;;;;;7.33;81.68;94170.97;4390498;32;20363;-52
2023/03/27 01:23:20;;;;;;;0.90;0.40;;;;;;;7.13;83.44;94177.50;4376761;32;20316;-49
2023/03/27 01:26:27;;;;;;;0.40;0.20;;;;;;;7.26;83.27;94176.69;4390224;32;20292;-53
2023/03/27 01:29:07;;;;;;;0.00;0.00;;;;;;;7.40;83.21;94169.47;4362197;32;20281;-51
2023/03/27 01:31:58;;;;;;;0.00;0.00;;;;;;;7.21;84.45;94174.16;4384516;32;20308;-53
2023/03/27 01:34:54;;;;;;;0.10;0.10;;;;;;;7.11;85.34;94174.41;4383305;32;20292;-50
2023/03/27 01:37:40;;;;;;;0.00;0.00;;;;;;;7.08;85.75;94175.00;4369119;32;20296;-52
2023/03/27 01:40:13;;;;;;;0.00;0.00;;;;;;;6.96;87.26;94172.13;4373201;32;20288;-50
2023/03/27 01:42:45;;;;;;;0.00;0.00;;;;;;;7.03;87.50;94172.50;4387536;32;20345;-50
2023/03/27 01:45:18;;;;;;;0.00;0.00;;;;;;;7.09;87.45;94177.34;4390312;32;21705;-50
2023/03/27 01:48:05;;;;;;;0.00;0.00;;;;;;;6.79;88.73;94162.22;4387641;32;20390;-49
2023/03/27 01:50:43;;;;;;;0.20;0.20;;;;;;;6.72;88.32;94175.81;4380413;32;20281;-51
2023/03/27 01:53:24;;;;;;;0.00;0.00;;;;;;;6.76;89.24;94168.09;4390928;32;20335;-52
2023/03/27 01:55:57;;;;;;;0.00;0.00;;;;;;;6.89;89.20;94175.94;4379605;32;20331;-49
2023/03/27 01:58:45;;;;;;;0.00;0.00;;;;;;;6.86;88.70;94179.16;4377039;32;20299;-48
2023/03/27 02:01:16;;;;;;;0.43;0.27;;;;;;;6.88;89.96;94181.50;4376285;32;20393;-52
2023/03/27 02:03:50;;;;;;;0.00;0.00;;;;;;;6.68;89.76;94192.50;4370862;32;20371;-50
2023/03/27 02:06:20;;;;;;;0.00;0.00;;;;;;;6.90;90.20;94189.91;4388520;32;20297;-49
2023/03/27 02:08:52;;;;;;;0.00;0.00;;;;;;;6.75;89.54;94198.16;4373393;32;20326;-49
2023/03/27 02:11:17;;;;;;;0.10;0.10;;;;;;;6.70;89.82;94200.87;4392839;32;20358;-46
2023/03/27 02:13:55;;;;;;;0.00;0.00;;;;;;;6.66;89.95;94203.31;4391899;32;20277;-46
2023/03/27 02:16:32;;;;;;;0.00;0.00;;;;;;;6.92;89.53;94197.50;4373904;32;20188;-48
2023/03/27 02:19:01;;;;;;;0.00;0.00;;;;;;;6.86;89.14;94194.97;4390863;32;20318;-45
2023/03/27 02:21:30;;;;;;;0.00;0.00;;;;;;;7.05;89.37;94196.72;4378428;32;20284;-49
2023/03/27 02:23:56;;;;;;;0.00;0.00;;;;;;;7.05;89.10;94188.78;4385851;32;20303;-46
2023/03/27 02:26:21;;;;;;;0.00;0.00;;;;;;;6.94;88.10;94198.78;4367798;32;20273;-48
2023/03/27 02:29:25;;;;;;;0.00;0.00;;;;;;;7.11;88.10;94196.28;4376213;32;20219;-44
2023/03/27 02:32:13;;;;;;;0.00;0.00;;;;;;;7.02;88.42;94207.84;4319833;33;20307;-52
2023/03/27 02:34:57;;;;;;;0.00;0.00;;;;;;;6.90;88.47;94206.50;4321763;33;20368;-50
2023/03/27 02:37:28;;;;;;;0.00;0.00;;;;;;;6.86;91.52;94221.34;4353727;32;20280;-47
2023/03/27 02:40:21;;;;;;;0.00;0.00;;;;;;;6.72;89.87;94217.97;4379321;32;20284;-50
2023/03/27 02:43:11;;;;;;;0.13;0.07;;;;;;;6.74;89.99;94218.44;4378759;32;20310;-49
2023/03/27 02:45:49;;;;;;;0.00;0.00;;;;;;;6.84;89.45;94223.53;4378366;32;20291;-48
2023/03/27 02:48:16;;;;;;;0.10;0.10;;;;;;;6.82;90.03;94209.84;4385439;32;20322;-47
2023/03/27 02:50:52;;;;;;;0.00;0.00;;;;;;;7.01;90.08;94214.19;4387100;32;20451;-47
2023/03/27 02:53:21;;;;;;;0.00;0.00;;;;;;;6.64;89.94;94231.84;4380504;32;20336;-48
2023/03/27 02:55:58;;;;;;;0.00;0.00;;;;;;;6.68;90.17;94224.91;4389968;32;20333;-48
2023/03/27 02:58:34;;;;;;;0.00;0.00;;;;;;;6.77;90.67;94227.62;4386733;32;20279;-47
2023/03/27 03:01:00;;;;;;;0.00;0.00;;;;;;;6.66;90.95;94236.81;4386810;32;20393;-49
2023/03/27 03:03:40;;;;;;;0.00;0.00;;;;;;;6.60;90.61;94233.50;4387138;32;20345;-49
2023/03/27 03:06:06;;;;;;;0.00;0.00;;;;;;;6.67;90.77;94243.62;4386158;32;20302;-47
2023/03/27 03:08:36;;;;;;;0.00;0.00;;;;;;;6.62;91.64;94236.63;4375195;32;20284;-46
2023/03/27 03:11:03;;;;;;;0.07;0.07;;;;;;;6.62;91.02;94234.00;4388457;32;20240;-49
2023/03/27 03:13:29;;;;;;;0.00;0.00;;;;;;;6.57;91.80;94239.37;4392011;32;20377;-50
2023/03/27 03:15:54;;;;;;;0.00;0.00;;;;;;;6.85;92.34;94235.62;4373724;32;20374;-48
2023/03/27 03:18:20;;;;;;;0.00;0.00;;;;;;;6.85;90.04;94245.38;4361085;32;20282;-49
2023/03/27 03:20:45;;;;;;;0.00;0.00;;;;;;;6.74;90.26;94239.53;4359425;32;20189;-47
2023/03/27 03:23:10;;;;;;;0.00;0.00;;;;;;;6.85;90.98;94251.44;4384719;32;20259;-46
2023/03/27 03:25:36;;;;;;;0.00;0.00;;;;;;;6.57;90.48;94255.16;4376803;32;20196;-45
2023/03/27 03:28:01;;;;;;;0.20;0.20;;;;;;;6.47;91.38;94255.34;4381357;32;20191;-49
2023/03/27 03:30:29;;;;;;;0.00;0.00;;;;;;;6.58;91.52;94259.38;4377843;32;20173;-48
2023/03/27 03:32:55;;;;;;;0.17;0.17;;;;;;;6.37;92.41;94256.34;4390210;32;20214;-47
2023/03/27 03:35:22;;;;;;;0.13;0.13;;;;;;;6.43;92.81;94255.19;4379303;32;20314;-46
2023/03/27 03:37:49;;;;;;;0.00;0.00;;;;;;;6.35;93.19;94270.88;4378259;32;20299;-45
2023/03/27 03:40:16;;;;;;;0.10;0.10;;;;;;;6.13;93.44;94259.16;4391094;32;20280;-50
2023/03/27 03:42:51;;;;;;;0.37;0.23;;;;;;;6.22;93.57;94263.75;4388178;32;20329;-47
2023/03/27 03:45:17;;;;;;;0.00;0.00;;;;;;;6.33;93.51;94259.84;4390597;32;20306;-48
2023/03/27 03:47:44;;;;;;;1.60;0.20;;;;;;;6.09;93.79;94276.59;4372824;32;20290;-46
2023/03/27 03:50:10;;;;;;;0.00;0.00;;;;;;;5.94;94.70;94276.09;4384612;32;20316;-49
2023/03/27 03:52:36;;;;;;;0.10;0.10;;;;;;;6.32;95.41;94280.12;4387963;32;20303;-47
2023/03/27 03:55:05;;;;;;;0.00;0.00;;;;;;;6.24;93.83;94287.94;4391867;32;20279;-50
2023/03/27 03:57:31;;;;;;;0.07;0.07;;;;;;;6.34;93.66;94287.75;4391523;32;20273;-47
2023/03/27 03:59:59;;;;;;;0.30;0.27;;;;;;;6.25;93.38;94297.38;4390283;32;20280;-48
2023/03/27 04:02:28;;;;;;;0.03;0.03;;;;;;;6.38;93.83;94300.06;4377351;32;20217;-50
2023/03/27 04:04:55;;;;;;;0.00;0.00;;;;;;;6.26;92.83;94309.47;4391672;32;20288;-47
2023/03/27 04:07:22;;;;;;;0.20;0.20;;;;;;;6.18;93.96;94308.31;4379469;32;20284;-45
2023/03/27 04:09:49;;;;;;;0.00;0.00;;;;;;;6.15;94.08;94311.53;4380363;32;20281;-50
2023/03/27 04:12:15;;;;;;;0.03;0.03;;;;;;;6.24;93.41;94319.53;4371705;32;20321;-46
2023/03/27 04:14:41;;;;;;;0.00;0.00;;;;;;;6.11;93.57;94327.12;4388754;32;21837;-49
2023/03/27 04:17:06;;;;;;;0.00;0.00;;;;;;;6.17;94.51;94320.69;4389075;32;20280;-47
2023/03/27 04:19:32;;;;;;;0.00;0.00;;;;;;;6.19;93.57;94318.56;4389154;32;20204;-48
2023/03/27 04:22:00;;;;;;;0.07;0.07;;;;;;;6.16;93.23;94318.34;4388131;32;20193;-47
2023/03/27 04:24:29;;;;;;;0.00;0.00;;;;;;;5.77;94.53;94322.13;4387988;32;20184;-47
2023/03/27 04:26:57;;;;;;;1.37;0.40;;;;;;;6.00;94.41;94309.94;4385532;32;20347;-48
2023/03/27 04:29:23;;;;;;;0.03;0.03;;;;;;;6.12;94.85;94318.16;4390865;32;20290;-50
2023/03/27 04:31:49;;;;;;;0.10;0.10;;;;;;;6.06;94.76;94324.56;4374708;32;20290;-51
2023/03/27 04:34:19;;;;;;;0.00;0.00;;;;;;;6.37;94.67;94326.69;4388007;32;20292;-51
2023/03/27 04:36:44;;;;;;;0.00;0.00;;;;;;;6.26;93.72;94333.19;4389778;32;20336;-51
2023/03/27 04:39:09;;;;;;;0.00;0.00;;;;;;;6.16;95.03;94344.69;4369016;32;20292;-49
2023/03/27 04:41:35;;;;;;;0.00;0.00;;;;;;;6.30;95.95;94342.84;4386075;32;20192;-49
2023/03/27 04:44:00;;;;;;;0.10;0.10;;;;;;;6.47;95.18;94350.19;4370266;32;20189;-49
2023/03/27 04:46:25;;;;;;;0.13;0.13;;;;;;;6.58;95.14;94358.72;4385351;32;20180;-50
2023/03/27 04:48:50;;;;;;;0.10;0.10;;;;;;;6.72;95.87;94370.03;4378455;32;20226;-49
2023/03/27 04:51:16;;;;;;;0.17;0.17;;;;;;;6.77;97.51;94370.72;4391511;32;20184;-49
2023/03/27 04:53:42;;;;;;;0.17;0.17;;;;;;;6.32;94.71;94382.84;4386165;32;20195;-46
2023/03/27 04:56:08;;;;;;;0.20;0.20;;;;;;;6.48;94.70;94388.63;4385266;32;20222;-46
2023/03/27 04:58:33;;;;;;;0.00;0.00;;;;;;;6.20;93.34;94414.91;4368117;32;20193;-48
2023/03/27 05:01:01;;;;;;;0.00;0.00;;;;;;;6.32;94.26;94413.69;4381829;32;20331;-47
2023/03/27 05:03:26;;;;;;;0.00;0.00;;;;;;;6.34;95.04;94427.34;4385333;32;20196;-50
2023/03/27 05:05:51;;;;;;;0.00;0.00;;;;;;;6.17;93.33;94415.50;4381391;32;20307;-48
2023/03/27 05:08:17;;;;;;;0.00;0.00;;;;;;;6.17;93.09;94419.97;4373374;32;20216;-46
2023/03/27 05:10:44;;;;;;;0.00;0.00;;;;;;;6.20;92.18;94440.47;4377601;32;20204;-48
2023/03/27 05:13:09;;;;;;;0.10;0.10;;;;;;;5.98;93.14;94451.59;4375615;32;20384;-51
2023/03/27 05:15:35;;;;;;;0.77;0.20;;;;;;;6.06;95.46;94448.28;4374841;32;20285;-49
2023/03/27 05:18:00;;;;;;;0.13;0.13;;;;;;;5.91;95.33;94463.53;4380299;32;20256;-49
2023/03/27 05:20:26;;;;;;;0.00;0.00;;;;;;;5.95;95.13;94467.16;4386892;32;20238;-47
2023/03/27 05:22:53;;;;;;;0.00;0.00;;;;;;;5.85;94.88;94470.69;4377024;32;20180;-48
2023/03/27 05:25:19;;;;;;;0.50;0.23;;;;;;;6.01;96.23;94481.84;4385651;32;20185;-46
2023/03/27 05:27:46;;;;;;;0.10;0.10;;;;;;;6.07;95.60;94486.72;4385367;32;20295;-44
2023/03/27 05:30:14;;;;;;;0.00;0.00;;;;;;;6.05;95.17;94499.38;4387379;32;20386;-47
2023/03/27 05:32:50;;;;;;;0.00;0.00;;;;;;;5.82;93.94;94497.56;4374185;32;20354;-48
2023/03/27 05:35:20;;;;;;;0.00;0.00;;;;;;;5.65;94.25;94511.19;4386704;32;20299;-46
2023/03/27 05:37:49;;;;;;;0.00;0.00;;;;;;;5.70;94.93;94526.16;4387080;32;20280;-47
2023/03/27 05:40:16;;;;;;;0.00;0.00;;;;;;;5.74;95.29;94524.53;4389125;32;20280;-46
2023/03/27 05:42:44;;;;;;;0.57;0.33;;;;;;;6.13;95.61;94535.59;4386992;32;20382;-47
2023/03/27 05:45:10;;;;;;;0.20;0.20;;;;;;;5.88;93.79;94549.06;4367684;32;20328;-47
2023/03/27 05:47:53;;;;;;;0.07;0.07;;;;;;;5.97;94.44;94549.25;4365151;32;20297;-47
2023/03/27 05:50:22;;;;;;;0.00;0.00;;;;;;;5.74;93.86;94562.16;4386010;32;20359;-46
2023/03/27 05:53:11;;;;;;;0.00;0.00;;;;;;;5.73;93.00;94573.72;4389430;32;20293;-49
2023/03/27 05:55:37;;;;;;;0.00;0.00;;;;;;;5.64;92.08;94569.34;4392951;32;20292;-49
2023/03/27 05:58:05;;;;;;;0.20;0.20;;;;;;;5.47;93.58;94585.59;4386558;32;20295;-47
2023/03/27 06:00:33;;;;;;;0.10;0.10;;;;;;;5.60;93.96;94616.50;4380246;32;20277;-46
2023/03/27 06:03:00;;;;;;;0.00;0.00;;;;;;;5.43;94.37;94611.66;4360649;32;20300;-46
2023/03/27 06:05:28;;;;;;;0.00;0.00;;;;;;;5.47;92.82;94615.31;4376575;32;20304;-48
2023/03/27 06:07:54;;;;;;;0.00;0.00;;;;;;;5.39;93.96;94623.81;4383444;32;20284;-49
2023/03/27 06:10:20;;;;;;;0.00;0.00;;;;;;;5.69;95.13;94637.72;4393895;32;20276;-47
2023/03/27 06:12:47;;;;;;;0.00;0.00;;;;;;;5.53;93.66;94648.41;4393278;32;20328;-49
2023/03/27 06:15:14;;;;;;;0.07;0.07;;;;;;;5.75;96.01;94665.56;4388760;32;20284;-49
2023/03/27 06:17:41;;;;;;;0.00;0.00;;;;;;;5.43;93.31;94677.41;4384669;32;20236;-48
2023/03/27 06:20:11;;;;;;;0.10;0.10;;;;;;;5.21;93.53;94671.81;4382509;32;20376;-45
2023/03/27 06:23:09;;;;;;;0.10;0.10;;;;;;;5.12;94.60;94689.25;4372067;32;20273;-48
2023/03/27 06:25:37;;;;;;;0.00;0.00;;;;;;;5.11;93.17;94692.94;4344236;32;20276;-49
2023/03/27 06:28:06;;;;;;;0.10;0.10;;;;;;;5.26;93.48;94700.69;4377829;32;20352;-48
2023/03/27 06:30:32;;;;;;;0.10;0.10;;;;;;;5.19;94.15;94708.12;4380836;32;20315;-49
2023/03/27 06:32:59;;;;;;;0.27;0.27;;;;;;;5.26;93.70;94721.72;4373489;32;20288;-50
2023/03/27 06:35:29;;;;;;;0.13;0.13;;;;;;;5.21;95.41;94721.75;4384380;32;20281;-47
2023/03/27 06:37:55;;;;;;;0.10;0.10;;;;;;;5.28;94.53;94730.12;4389895;32;20288;-50
2023/03/27 06:40:23;;;;;;;3.47;2.07;;;;;;;5.41;94.52;94752.38;4394084;32;20314;-52
2023/03/27 06:42:55;;;;;;;0.83;0.67;;;;;;;5.99;100.00;94744.56;4390533;32;20183;-55
2023/03/27 06:45:26;;;;;;;0.50;0.50;;;;;;;10.30;100.00;94728.88;4392381;32;20280;-56
2023/03/27 06:48:03;;;;;;;0.00;0.00;;;;;;;11.23;99.17;94745.34;4376784;32;20331;-58
2023/03/27 06:50:30;;;;;;;0.00;0.00;;;;;;;12.13;84.38;94769.41;4385509;32;20316;-54
2023/03/27 06:52:57;;;;;;;0.10;0.10;;;;;;;12.18;73.83;94771.13;4390998;32;20215;-56
2023/03/27 06:55:25;;;;;;;0.10;0.10;;;;;;;12.68;70.23;94784.56;4374132;32;20180;-56
2023/03/27 06:57:52;;;;;;;0.00;0.00;;;;;;;12.72;67.80;94790.81;4392192;32;20245;-55
2023/03/27 07:00:23;;;;;;;0.00;0.00;;;;;;;12.69;65.91;94805.53;4371222;32;20195;-55
2023/03/27 07:02:59;;;;;;;0.00;0.00;;;;;;;12.43;65.25;94812.84;4375556;32;20180;-47
2023/03/27 07:05:27;;;;;;;0.00;0.00;;;;;;;9.92;67.17;94818.59;4365050;32;20188;-48
2023/03/27 07:07:53;;;;;;;0.00;0.00;;;;;;;8.16;73.71;94835.06;4386875;32;20193;-50
2023/03/27 07:10:20;;;;;;;0.23;0.23;;;;;;;6.73;79.88;94849.41;4373449;32;20290;-49
2023/03/27 07:12:51;;;;;;;0.10;0.10;;;;;;;6.10;83.55;94852.12;4368473;32;20284;-48
2023/03/27 07:15:18;;;;;;;0.47;0.33;;;;;;;5.42;87.14;94862.56;4370897;32;20374;-49
2023/03/27 07:17:51;;;;;;;0.00;0.00;;;;;;;5.15;89.10;94856.94;4378243;32;20280;-49
2023/03/27 07:20:16;;;;;;;0.10;0.10;;;;;;;5.17;90.75;94870.59;4376270;32;20292;-52
2023/03/27 07:22:42;;;;;;;0.10;0.10;;;;;;;5.39;89.55;94873.66;4387013;32;20400;-48
2023/03/27 07:25:09;;;;;;;0.00;0.00;;;;;;;5.35;90.12;94896.28;4383367;32;20207;-49
2023/03/27 07:27:34;;;;;;;0.27;0.27;;;;;;;5.17;89.87;94889.00;4378017;32;20200;-51
2023/03/27 07:30:00;;;;;;;0.03;0.03;;;;;;;5.43;89.65;94894.91;4378317;32;20331;-49
2023/03/27 07:32:28;;;;;;;0.10;0.10;;;;;;;5.41;90.29;94903.06;4384086;32;20211;-48
2023/03/27 07:34:54;;;;;;;0.00;0.00;;;;;;;5.37;90.90;94907.31;4378030;32;20241;-50
2023/03/27 07:37:21;;;;;;;0.00;0.00;;;;;;;5.10;90.16;94925.31;4380462;32;20301;-51
2023/03/27 07:39:47;;;;;;;0.00;0.00;;;;;;;5.04;90.84;94926.38;4377625;32;20181;-48
2023/03/27 07:42:12;;;;;;;0.00;0.00;;;;;;;5.10;90.17;94935.81;4373196;32;20305;-50
2023/03/27 07:44:37;;;;;;;0.10;0.10;;;;;;;5.14;90.23;94939.50;4377812;32;20215;-51
2023/03/27 07:47:03;;;;;;;0.20;0.20;;;;;;;4.92;90.86;94949.53;4377447;32;20192;-49
2023/03/27 07:49:28;;;;;;;0.10;0.10;;;;;;;5.00;91.01;94946.34;4390539;32;20196;-50
2023/03/27 07:51:53;;;;;;;0.00;0.00;;;;;;;4.61;90.24;94967.19;4372098;32;20237;-52
2023/03/27 07:54:20;;;;;;;0.00;0.00;;;;;;;4.94;91.36;94965.84;4391163;32;20184;-52
2023/03/27 07:56:46;;;;;;;0.00;0.00;;;;;;;4.59;92.30;94977.94;4376305;32;20211;-47
2023/03/27 07:59:12;;;;;;;0.10;0.10;;;;;;;4.74;91.92;94972.72;4372756;32;20375;-47
2023/03/27 08:01:37;;;;;;;0.10;0.10;;;;;;;4.97;91.40;94978.44;4371054;32;20367;-47
2023/03/27 08:04:04;;;;;;;0.40;0.40;;;;;;;4.97;92.08;94984.50;4390305;32;20184;-49
2023/03/27 08:06:29;;;;;;;0.20;0.20;;;;;;;4.86;90.52;94993.44;4385990;32;20189;-51
2023/03/27 08:08:55;;;;;;;0.20;0.20;;;;;;;5.08;89.53;94998.38;4369178;32;20349;-50
2023/03/27 08:11:20;;;;;;;0.00;0.00;;;;;;;5.28;91.05;95008.84;4391239;32;20199;-49
2023/03/27 08:13:46;;;;;;;0.20;0.20;;;;;;;5.02;89.67;95015.22;4387209;32;20237;-47
2023/03/27 08:16:16;;;;;;;0.00;0.00;;;;;;;5.13;90.13;95019.41;4387998;32;20280;-53
2023/03/27 08:18:43;;;;;;;0.40;0.40;;;;;;;5.21;90.77;95032.00;4391088;32;20271;-50
2023/03/27 08:21:09;;;;;;;0.47;0.47;;;;;;;5.15;90.38;95033.09;4379616;32;20312;-50
2023/03/27 08:23:36;;;;;;;0.20;0.20;;;;;;;4.80;89.70;95034.69;4390678;32;20283;-50
2023/03/27 08:26:02;;;;;;;0.53;0.53;;;;;;;4.93;91.22;95041.25;4373389;32;20333;-49
2023/03/27 08:28:30;;;;;;;0.83;0.77;;;;;;;5.28;90.29;95045.66;4370417;32;20302;-49
2023/03/27 08:34:18;;;;;;;1.27;0.43;;;;;;;5.44;87.28;95070.09;4379292;32;20330;-48
2023/03/27 08:36:43;;;;;;;0.63;0.63;;;;;;;5.41;88.14;95076.66;4381061;32;20296;-45
2023/03/27 08:39:09;;;;;;;0.50;0.50;;;;;;;5.38;88.21;95089.59;4383612;32;20191;-49
2023/03/27 08:41:49;;;;;;;0.70;0.70;;;;;;;5.34;89.14;95091.16;4377190;32;20196;-50
2023/03/27 08:44:18;;;;;;;1.60;1.20;;;;;;;5.56;89.10;95099.53;4376945;32;20293;-49
2023/03/27 08:46:50;;;;;;;0.67;0.67;;;;;;;5.35;90.68;95098.78;4389675;32;20283;-52
2023/03/27 08:49:17;;;;;;;0.10;0.10;;;;;;;5.37;89.07;95098.53;4389794;32;20269;-50
2023/03/27 08:51:55;;;;;;;0.10;0.10;;;;;;;5.42;90.22;95109.81;4375207;32;20351;-48
2023/03/27 08:54:35;;;;;;;0.43;0.30;;;;;;;5.14;88.45;95118.28;4389185;32;20293;-46
2023/03/27 08:57:11;;;;;;;0.23;0.23;;;;;;;5.02;89.56;95122.97;4376148;32;20331;-48
2023/03/27 08:59:37;;;;;;;0.60;0.60;;;;;;;4.96;89.71;95129.31;4367171;32;20329;-48
2023/03/27 09:02:09;;;;;;;0.57;0.57;;;;;;;4.94;90.05;95137.47;4373560;32;20300;-48
2023/03/27 09:04:52;;;;;;;1.13;1.03;;;;;;;4.92;90.64;95149.28;4383986;32;20287;-49
2023/03/27 09:07:23;;;;;;;0.57;0.57;;;;;;;5.06;90.29;95143.22;4389589;32;20306;-50
2023/03/27 09:09:58;;;;;;;1.13;1.13;;;;;;;4.98;90.07;95153.50;4385077;32;20288;-47
2023/03/27 09:12:38;;;;;;;0.80;0.80;;;;;;;5.01;90.17;95145.84;4366983;32;20288;-49
2023/03/27 09:15:21;;;;;;;1.73;1.63;;;;;;;4.95;90.19;95151.38;4387937;32;20316;-48
2023/03/27 09:17:57;;;;;;;3.07;1.33;;;;;;;5.24;89.51;95159.53;4393743;32;20294;-51
2023/03/27 09:20:31;;;;;;;0.80;0.80;;;;;;;5.35;89.10;95155.84;4385124;32;20296;-51
2023/03/27 09:23:20;;;;;;;0.90;0.90;;;;;;;5.33;87.96;95177.16;4393823;32;20276;-50
2023/03/27 09:25:54;;;;;;;5.63;2.20;;;;;;;5.17;88.46;95175.59;4380184;32;20284;-47
2023/03/27 09:28:24;;;;;;;1.13;1.13;;;;;;;5.23;86.55;95179.78;4391464;32;20285;-52
2023/03/27 09:30:49;;;;;;;2.67;1.17;;;;;;;5.90;92.24;95185.78;4381954;32;20329;-47
2023/03/27 09:33:15;;;;;;;1.13;1.13;;;;;;;5.95;86.95;95186.59;4391930;32;20272;-51
2023/03/27 09:35:41;;;;;;;5.00;0.87;;;;;;;5.38;85.70;95189.53;4387525;32;20218;-48
2023/03/27 09:38:23;;;;;;;1.13;1.07;;;;;;;5.38;86.96;95192.16;4393764;32;20213;-47
2023/03/27 09:41:05;;;;;;;0.87;0.87;;;;;;;5.48;85.90;95202.66;4392600;32;20239;-49
2023/03/27 09:44:02;;;;;;;0.80;0.80;;;;;;;5.43;85.36;95205.28;4392006;32;20345;-50
2023/03/27 09:46:27;;;;;;;0.80;0.70;;;;;;;5.36;86.19;95208.19;4375834;32;20303;-51
2023/03/27 09:49:22;;;;;;;0.60;0.60;;;;;;;5.37;84.98;95217.66;4386431;32;20288;-47
2023/03/27 09:51:57;;;;;;;0.77;0.77;;;;;;;5.71;85.49;95206.59;4366552;32;20184;-47
2023/03/27 09:54:27;;;;;;;0.90;0.90;;;;;;;5.76;84.70;95225.03;4389858;32;20287;-53
2023/03/27 09:57:02;;;;;;;0.83;0.83;;;;;;;5.61;83.97;95220.53;4392511;32;20267;-47
2023/03/27 09:59:36;;;;;;;0.50;0.50;;;;;;;5.74;84.81;95220.03;4389766;32;20354;-49
2023/03/27 10:02:30;;;;;;;0.77;0.77;;;;;;;5.75;84.10;95226.06;4383959;32;20274;-49
2023/03/27 10:05:14;;;;;;;0.67;0.67;;;;;;;5.84;83.63;95221.84;4386602;32;20322;-47
2023/03/27 10:07:41;;;;;;;0.70;0.70;;;;;;;5.85;83.06;95231.31;4373958;32;20280;-52
2023/03/27 10:10:10;;;;;;;1.20;1.20;;;;;;;5.76;81.90;95238.19;4377921;32;20404;-52
2023/03/27 10:12:36;;;;;;;1.00;1.00;;;;;;;5.76;81.62;95236.34;4384421;32;20287;-47
2023/03/27 10:15:05;;;;;;;13.03;1.43;;;;;;;5.86;82.42;95243.41;4389151;32;20292;-48
2023/03/27 10:17:37;;;;;;;0.27;0.27;;;;;;;6.02;81.71;95255.56;4378770;32;20324;-52
2023/03/27 10:20:14;;;;;;;3.80;0.90;;;;;;;6.12;79.76;95262.63;4387033;32;20318;-50
2023/03/27 10:22:41;;;;;;;9.80;1.53;;;;;;;6.03;78.31;95256.31;4362286;32;20319;-53
2023/03/27 10:25:34;;;;;;;1.20;1.10;;;;;;;6.22;80.03;95264.47;4390841;32;20359;-51
2023/03/27 10:28:18;;;;;;;3.30;1.30;;;;;;;6.12;79.34;95262.63;4369371;32;20289;-52
2023/03/27 10:30:44;;;;;;;1.70;1.03;;;;;;;6.09;78.97;95271.84;4387955;32;20339;-50
2023/03/27 10:33:10;;;;;;;1.13;0.90;;;;;;;6.29;78.47;95280.78;4389719;32;20294;-50
2023/03/27 10:35:42;;;;;;;1.47;1.10;;;;;;;6.00;78.26;95275.31;4374831;32;20284;-50
2023/03/27 10:38:16;;;;;;;0.63;0.47;;;;;;;6.05;77.94;95296.34;4389109;32;20199;-50
2023/03/27 10:40:49;;;;;;;0.80;0.80;;;;;;;5.74;77.59;95298.97;4390931;32;20318;-52
2023/03/27 10:43:31;;;;;;;0.83;0.83;;;;;;;5.64;75.60;95295.53;4377401;32;20294;-51
2023/03/27 10:46:05;;;;;;;0.73;0.73;;;;;;;5.74;75.98;95306.06;4387089;32;20290;-50
2023/03/27 10:48:49;;;;;;;1.77;1.03;;;;;;;5.46;75.24;95304.72;4385000;32;20331;-53
2023/03/27 10:51:38;;;;;;;0.70;0.70;;;;;;;5.58;74.15;95313.19;4373302;32;20280;-51
2023/03/27 10:54:14;;;;;;;1.40;0.93;;;;;;;5.66;75.32;95315.28;4384067;32;20288;-51
2023/03/27 10:57:11;;;;;;;0.40;0.40;;;;;;;5.69;75.25;95311.31;4383711;32;20272;-53
2023/03/27 10:59:56;;;;;;;0.77;0.77;;;;;;;5.87;76.46;95319.50;4388214;32;20284;-55
2023/03/27 11:02:38;;;;;;;5.97;0.87;;;;;;;5.96;73.81;95334.81;4378546;32;20280;-55
2023/03/27 11:05:11;;;;;;;0.40;0.40;;;;;;;5.76;73.02;95320.56;4377626;32;20291;-56
2023/03/27 11:07:42;;;;;;;1.07;0.63;;;;;;;5.85;73.60;95328.69;4383796;32;20276;-52
2023/03/27 11:10:13;;;;;;;0.63;0.63;;;;;;;5.88;73.24;95336.06;4375286;32;20288;-54
2023/03/27 11:12:41;;;;;;;1.20;1.10;;;;;;;6.04;74.86;95337.69;4385659;32;20310;-53
2023/03/27 11:15:21;;;;;;;0.70;0.70;;;;;;;5.86;74.23;95340.81;4392757;32;20333;-54
2023/03/27 11:17:56;;;;;;;1.17;1.07;;;;;;;5.98;73.17;95346.66;4375502;32;20264;-53
2023/03/27 11:20:49;;;;;;;0.73;0.73;;;;;;;6.07;75.64;95341.63;4390735;32;20339;-55
2023/03/27 11:23:23;;;;;;;2.13;0.80;;;;;;;5.98;72.81;95349.28;4368651;32;20273;-54
2023/03/27 11:25:51;;;;;;;0.90;0.90;;;;;;;6.00;74.63;95347.19;4377352;32;20279;-55
2023/03/27 11:28:42;;;;;;;0.43;0.43;;;;;;;5.60;71.94;95341.84;4382909;32;20272;-54
2023/03/27 11:31:33;;;;;;;0.53;0.53;;;;;;;5.77;71.66;95352.94;4375501;32;20284;-51
2023/03/27 11:34:08;;;;;;;0.57;0.57;;;;;;;5.92;71.70;95352.16;4377886;32;20389;-54
2023/03/27 11:36:43;;;;;;;0.83;0.83;;;;;;;5.75;70.87;95355.03;4391211;32;20279;-55
2023/03/27 11:39:15;;;;;;;0.97;0.33;;;;;;;5.99;71.59;95363.25;4389613;32;20276;-56
2023/03/27 11:41:46;;;;;;;0.83;0.83;;;;;;;6.10;72.22;95351.63;4389323;32;20343;-56
2023/03/27 11:44:11;;;;;;;0.30;0.30;;;;;;;6.17;71.06;95355.59;4382524;32;20350;-53
2023/03/27 11:47:00;;;;;;;0.90;0.90;;;;;;;6.20;70.25;95370.88;4366503;32;20289;-51
2023/03/27 11:49:52;;;;;;;0.83;0.83;;;;;;;5.99;68.66;95368.50;4378845;32;20192;-54
2023/03/27 11:52:36;;;;;;;0.70;0.70;;;;;;;5.82;66.72;95373.97;4392148;32;20300;-57
2023/03/27 11:55:20;;;;;;;0.77;0.77;;;;;;;5.76;64.25;95364.50;4378379;32;20304;-56
2023/03/27 11:57:58;;;;;;;0.30;0.30;;;;;;;5.95;64.81;95360.34;4389206;32;20280;-54
2023/03/27 12:00:41;;;;;;;0.97;0.40;;;;;;;6.11;63.98;95356.66;4389429;32;20328;-55
2023/03/27 12:03:18;;;;;;;2.03;0.73;;;;;;;6.32;62.08;95359.28;4386954;32;20300;-55
2023/03/27 12:05:54;;;;;;;0.30;0.30;;;;;;;6.44;62.83;95352.66;4390468;32;20291;-52